Patricia Ann — WDE2845 — position and weather

sailwx.info

Track history (hours):
 
Tides and Currents Weather Stations Pressure Air Temp Water Temp Dewpoint Dewpoint Depression Visibility Wind Speed Wind Dir Waves Ship Positions

Patricia Ann

Owner: AmNav Maritime Services, Oakland, CA. More information available from US FCC via Universal Licensing System and Coast Guard Vessel Documentation Center.

Last reported at 2016-Feb-12 21:33 UTC. Time now 2016-Feb-12 22:33 UTC.
Position N 37°49' W 122°19'.

Length 24 m; draft 4.9 m.

Type: Tug. MMSI: 367330510.

Date/timePositionNaut miles runAvg speedWind from/ knotsBaromVisibWave heightAir tempDewpointWater temp
2016-Feb-12 21:33N 37°49' W 122°19'8 7.8
2016-Feb-12 20:33N 37°55' W 122°25'1 1.3
2016-Feb-12 19:33N 37°54' W 122°25'7 6.9
2016-Feb-12 18:33N 37°49' W 122°31'2 2.1
2016-Feb-12 17:33N 37°49' W 122°28'6 6.5
2016-Feb-12 16:33N 37°54' W 122°23'0 0.0
2016-Feb-12 15:33N 37°54' W 122°23'0 0.0
2016-Feb-12 14:33N 37°54' W 122°23'0 0.0
2016-Feb-12 13:31N 37°54' W 122°23'0 0.0
2016-Feb-12 12:33N 37°54' W 122°23'0 0.0
2016-Feb-12 11:33N 37°54' W 122°23'0 0.0
2016-Feb-12 10:33N 37°54' W 122°23'0 0.0
2016-Feb-12 09:33N 37°54' W 122°23'1 1.2
2016-Feb-12 08:33N 37°55' W 122°22'0 0.0
2016-Feb-12 07:32N 37°55' W 122°22'0 0.0
2016-Feb-12 06:33N 37°55' W 122°22'0 0.0
2016-Feb-12 05:33N 37°55' W 122°22'0 0.3
2016-Feb-12 04:33N 37°55' W 122°22'0 0.4
2016-Feb-12 03:33N 37°55' W 122°22'3 2.9
2016-Feb-12 02:33N 37°55' W 122°25'2 1.5
2016-Feb-12 01:33N 37°54' W 122°25'10 7.6
2016-Feb-12 00:16N 38°03' W 122°20'9 0.5
2016-Feb-11 08:05N 38°02' W 122°09'4 6.8
2016-Feb-11 07:33N 38°03' W 122°13'2 2.0
2016-Feb-11 06:33N 38°04' W 122°16'11 7.8
2016-Feb-11 05:11N 37°57' W 122°26'6 9.9
2016-Feb-11 04:33N 37°51' W 122°23'4 3.7
2016-Feb-11 03:33N 37°49' W 122°19'3 3.4
2016-Feb-11 02:33N 37°49' W 122°23'4 3.5
2016-Feb-11 01:33N 37°49' W 122°19'0 0.2
2016-Feb-11 00:33N 37°49' W 122°19'0 0.0
2016-Feb-10 23:33N 37°49' W 122°19'0 0.0
2016-Feb-10 22:33N 37°49' W 122°19'2 1.7
2016-Feb-10 21:33N 37°48' W 122°19'1 0.9
2016-Feb-10 20:33N 37°48' W 122°20'2 1.6
2016-Feb-10 19:33N 37°49' W 122°19'0 0.0
2016-Feb-10 18:33N 37°49' W 122°19'0 0.0
2016-Feb-10 17:33N 37°49' W 122°19'0 0.0
2016-Feb-10 16:33N 37°49' W 122°19'0 0.0
2016-Feb-10 15:33N 37°49' W 122°19'0 0.5
2016-Feb-10 14:33N 37°49' W 122°19'0 0.3
2016-Feb-10 13:33N 37°49' W 122°19'0 0.2
2016-Feb-10 12:33N 37°49' W 122°19'1 0.7
2016-Feb-10 11:33N 37°49' W 122°19'0 0.0
2016-Feb-10 10:33N 37°49' W 122°19'0 0.0
2016-Feb-10 09:33N 37°49' W 122°19'0 0.0
2016-Feb-10 08:34N 37°49' W 122°19'0 0.0
2016-Feb-10 07:33N 37°49' W 122°19'0 0.0
2016-Feb-10 06:33N 37°49' W 122°19'0 0.0
2016-Feb-10 05:33N 37°49' W 122°19'0 0.0
2016-Feb-10 04:33N 37°49' W 122°19'1 1.1
2016-Feb-10 03:33N 37°49' W 122°20'1 0.7
2016-Feb-10 02:33N 37°48' W 122°21'2 1.5
2016-Feb-10 01:33N 37°49' W 122°19'0 0.2
2016-Feb-10 00:33N 37°49' W 122°19'1 1.3
2016-Feb-09 23:34N 37°49' W 122°20'1 0.8
2016-Feb-09 22:33N 37°48' W 122°20'1 0.7
2016-Feb-09 21:33N 37°48' W 122°21'0 0.0
2016-Feb-09 20:33N 37°48' W 122°21'2 2.1
2016-Feb-09 19:33N 37°48' W 122°18'0 0.3
2016-Feb-09 18:33N 37°48' W 122°18'1 1.4
2016-Feb-09 17:33N 37°49' W 122°19'0 0.2
2016-Feb-09 16:33N 37°49' W 122°19'0 0.3
2016-Feb-09 15:33N 37°49' W 122°19'0 0.3
2016-Feb-09 14:34N 37°49' W 122°19'0 0.0
2016-Feb-09 13:34N 37°49' W 122°19'0 0.3
2016-Feb-09 12:33N 37°49' W 122°19'0 0.3
2016-Feb-09 11:33N 37°49' W 122°19'0 0.0
2016-Feb-09 10:33N 37°49' W 122°19'0 0.0
2016-Feb-09 09:34N 37°49' W 122°19'0 0.0
2016-Feb-09 08:34N 37°49' W 122°19'0 0.0
2016-Feb-09 07:34N 37°49' W 122°19'0 0.0
2016-Feb-09 06:33N 37°49' W 122°19'0 0.0
2016-Feb-09 05:33N 37°49' W 122°19'0 0.0
2016-Feb-09 04:33N 37°49' W 122°19'0 0.0
2016-Feb-09 03:33N 37°49' W 122°19'0 0.0
2016-Feb-09 02:33N 37°49' W 122°19'0 0.0
2016-Feb-09 01:33N 37°49' W 122°19'1 0.6
2016-Feb-09 00:33N 37°49' W 122°19'1 1.5
2016-Feb-08 23:33N 37°48' W 122°21'2 2.0
2016-Feb-08 22:33N 37°49' W 122°19'0 0.0
2016-Feb-08 21:33N 37°49' W 122°19'0 0.0
2016-Feb-08 20:34N 37°49' W 122°19'0 0.0
2016-Feb-08 19:33N 37°49' W 122°19'0 0.0
2016-Feb-08 18:33N 37°49' W 122°19'0 0.0
2016-Feb-08 17:33N 37°49' W 122°19'0 0.0
2016-Feb-08 16:33N 37°49' W 122°19'1 0.8
2016-Feb-08 15:33N 37°49' W 122°19'2 2.1
2016-Feb-08 14:34N 37°48' W 122°22'3 2.8
2016-Feb-08 13:33N 37°49' W 122°19'0 0.0
2016-Feb-08 12:34N 37°49' W 122°19'0 0.0
2016-Feb-08 11:33N 37°49' W 122°19'0 0.0
2016-Feb-08 10:33N 37°49' W 122°19'0 0.0
2016-Feb-08 09:33N 37°49' W 122°19'0 0.0
2016-Feb-08 08:33N 37°49' W 122°19'0 0.0
2016-Feb-08 07:34N 37°49' W 122°19'0 0.0
2016-Feb-08 06:34N 37°49' W 122°19'0 0.0
2016-Feb-08 05:34N 37°49' W 122°19'2 2.4
2016-Feb-08 04:33N 37°50' W 122°22'5 4.8
2016-Feb-08 03:33N 37°54' W 122°22'2 1.8
2016-Feb-08 02:33N 37°55' W 122°24'3 2.6
2016-Feb-08 01:33N 37°52' W 122°24'5 4.9
2016-Feb-08 00:33N 37°49' W 122°19'0 0.0
2016-Feb-07 23:33N 37°49' W 122°19'0 0.0
2016-Feb-07 22:33N 37°49' W 122°19'0 0.0
2016-Feb-07 21:33N 37°49' W 122°19'0 0.0
2016-Feb-07 20:33N 37°49' W 122°19'5 4.9
2016-Feb-07 19:33N 37°46' W 122°23'0 0.3
2016-Feb-07 18:33N 37°46' W 122°23'4 4.3
2016-Feb-07 17:33N 37°49' W 122°19'0 0.3
2016-Feb-07 16:33N 37°49' W 122°19'0 0.0
2016-Feb-07 15:33N 37°49' W 122°19'0 0.0
2016-Feb-07 14:33N 37°49' W 122°19'2 1.6
2016-Feb-07 13:33N 37°48' W 122°20'0 0.1
2016-Feb-07 12:33N 37°48' W 122°21'0 0.0
2016-Feb-07 11:33N 37°48' W 122°21'0 0.0
2016-Feb-07 10:33N 37°48' W 122°21'8 8.4
2016-Feb-07 09:33N 37°56' W 122°26'9 9.0
2016-Feb-07 08:33N 38°03' W 122°19'2 2.3
2016-Feb-07 07:29N 38°03' W 122°16'5 4.7
2016-Feb-07 06:21N 38°02' W 122°22'810.3
2016-Feb-07 05:33N 37°55' W 122°27'7 7.3
2016-Feb-07 04:34N 37°48' W 122°30'5 4.7
2016-Feb-07 03:33N 37°49' W 122°24'5 4.5
2016-Feb-07 02:33N 37°49' W 122°19'1 1.0
2016-Feb-07 01:34N 37°49' W 122°20'1 1.3
2016-Feb-07 00:34N 37°48' W 122°19'0 0.3
2016-Feb-06 23:33N 37°48' W 122°19'0 0.0
2016-Feb-06 22:33N 37°48' W 122°19'1 1.0
2016-Feb-06 21:33N 37°49' W 122°19'1 0.6
2016-Feb-06 20:34N 37°49' W 122°19'0 0.0
2016-Feb-06 19:34N 37°49' W 122°19'0 0.0
2016-Feb-06 18:33N 37°49' W 122°19'0 0.0
2016-Feb-06 17:34N 37°49' W 122°19'0 0.0
2016-Feb-06 16:34N 37°49' W 122°19'1 1.2
2016-Feb-06 15:34N 37°49' W 122°20'1 1.1
2016-Feb-06 14:33N 37°48' W 122°21'2 1.7
2016-Feb-06 13:34N 37°49' W 122°19'1 0.6
2016-Feb-06 12:33N 37°49' W 122°19'0 0.0
2016-Feb-06 11:34N 37°49' W 122°19'0 0.0
2016-Feb-06 10:34N 37°49' W 122°19'0 0.0
2016-Feb-06 09:33N 37°49' W 122°19'0 0.0
2016-Feb-06 08:34N 37°49' W 122°19'0 0.0
2016-Feb-06 07:33N 37°49' W 122°19'0 0.0
2016-Feb-06 06:33N 37°49' W 122°19'0 0.0
2016-Feb-06 05:33N 37°49' W 122°19'0 0.0
2016-Feb-06 04:34N 37°49' W 122°19'0 0.0
2016-Feb-06 03:34N 37°49' W 122°19'0 0.0
2016-Feb-06 02:33N 37°49' W 122°19'0 0.0
2016-Feb-06 01:34N 37°49' W 122°19'6 6.4
2016-Feb-06 00:34N 37°43' W 122°20'1010.0
2016-Feb-05 23:33N 37°34' W 122°14'4 3.9
2016-Feb-05 22:33N 37°31' W 122°13'3 3.1
2016-Feb-05 21:34N 37°34' W 122°12'3 3.2
2016-Feb-05 20:33N 37°35' W 122°16'6 6.2
2016-Feb-05 19:33N 37°41' W 122°20'5 5.5
2016-Feb-05 18:33N 37°46' W 122°21'2 2.3
2016-Feb-05 17:33N 37°48' W 122°21'0 0.0
2016-Feb-05 16:33N 37°48' W 122°21'1 1.1
2016-Feb-05 15:33N 37°49' W 122°19'1 0.7
2016-Feb-05 14:33N 37°49' W 122°19'0 0.0
2016-Feb-05 13:33N 37°49' W 122°19'0 0.0
2016-Feb-05 12:34N 37°49' W 122°19'0 0.0
2016-Feb-05 11:34N 37°49' W 122°19'0 0.0
2016-Feb-05 10:33N 37°49' W 122°19'0 0.0
2016-Feb-05 09:34N 37°49' W 122°19'0 0.0
2016-Feb-05 08:34N 37°49' W 122°19'0 0.0
2016-Feb-05 07:33N 37°49' W 122°19'0 0.0
2016-Feb-05 06:33N 37°49' W 122°19'0 0.0
2016-Feb-05 05:33N 37°49' W 122°19'0 0.0
2016-Feb-05 04:33N 37°49' W 122°19'0 0.0
2016-Feb-05 03:34N 37°49' W 122°19'0 0.0
2016-Feb-05 02:34N 37°49' W 122°19'0 0.0
2016-Feb-05 01:34N 37°49' W 122°19'0 0.0
2016-Feb-05 00:33N 37°49' W 122°19'0 0.0
2016-Feb-04 23:33N 37°49' W 122°19'0 0.0
2016-Feb-04 22:33N 37°49' W 122°19'0 0.0
2016-Feb-04 21:34N 37°49' W 122°19'0 0.0
2016-Feb-04 20:34N 37°49' W 122°19'0 0.0
2016-Feb-04 19:33N 37°49' W 122°19'0 0.0
2016-Feb-04 18:33N 37°49' W 122°19'0 0.0
2016-Feb-04 17:34N 37°49' W 122°19'0 0.0
2016-Feb-04 16:33N 37°49' W 122°19'0 0.0
2016-Feb-04 15:33N 37°49' W 122°19'0 0.0
2016-Feb-04 14:33N 37°49' W 122°19'2 1.5
2016-Feb-04 13:34N 37°48' W 122°19'0 0.0
2016-Feb-04 12:33N 37°48' W 122°19'1 0.8
2016-Feb-04 11:33N 37°49' W 122°19'2 2.3
2016-Feb-04 10:34N 37°48' W 122°22'2 1.8
2016-Feb-04 09:34N 37°49' W 122°20'0 0.0
2016-Feb-04 08:33N 37°49' W 122°20'0 0.0
2016-Feb-04 07:34N 37°49' W 122°20'0 0.0
2016-Feb-04 06:34N 37°49' W 122°20'0 0.0
2016-Feb-04 05:34N 37°49' W 122°20'0 0.0
2016-Feb-04 04:34N 37°49' W 122°20'1 0.6
2016-Feb-04 03:33N 37°49' W 122°19'1 0.6
2016-Feb-04 02:34N 37°49' W 122°19'0 0.1
2016-Feb-04 01:33N 37°49' W 122°19'0 0.0
2016-Feb-04 00:34N 37°49' W 122°19'0 0.0
2016-Feb-03 23:33N 37°49' W 122°19'0 0.0
2016-Feb-03 22:33N 37°49' W 122°19'0 0.0
2016-Feb-03 21:33N 37°49' W 122°19'0 0.0
2016-Feb-03 20:34N 37°49' W 122°19'0 0.0
2016-Feb-03 19:34N 37°49' W 122°19'0 0.0
2016-Feb-03 18:33N 37°49' W 122°19'0 0.0
2016-Feb-03 17:33N 37°49' W 122°19'0 0.0
2016-Feb-03 16:34N 37°49' W 122°19'0 0.3
2016-Feb-03 15:33N 37°49' W 122°19'3 2.8
2016-Feb-03 14:33N 37°48' W 122°22'3 3.0
2016-Feb-03 13:34N 37°49' W 122°19'0 0.0
2016-Feb-03 12:34N 37°49' W 122°19'0 0.0
2016-Feb-03 11:33N 37°49' W 122°19'0 0.0
2016-Feb-03 10:34N 37°49' W 122°19'0 0.0
2016-Feb-03 09:33N 37°49' W 122°19'0 0.0
2016-Feb-03 08:34N 37°49' W 122°19'0 0.0
2016-Feb-03 07:33N 37°49' W 122°19'0 0.0
2016-Feb-03 06:34N 37°49' W 122°19'0 0.0
2016-Feb-03 05:33N 37°49' W 122°19'0 0.0
2016-Feb-03 04:33N 37°49' W 122°19'0 0.0
2016-Feb-03 03:34N 37°49' W 122°19'0 0.0
2016-Feb-03 02:33N 37°49' W 122°19'0 0.0
2016-Feb-03 01:34N 37°49' W 122°19'1 0.8
2016-Feb-03 00:34N 37°49' W 122°19'2 1.6
2016-Feb-02 23:33N 37°48' W 122°21'3 2.6
2016-Feb-02 22:33N 37°48' W 122°18'  
Track history (hours):
 
Tides and Currents Weather Stations Pressure Air Temp Water Temp Dewpoint Dewpoint Depression Visibility Wind Speed Wind Dir Waves Ship Positions

Patricia Ann

Owner: AmNav Maritime Services, Oakland, CA. More information available from US FCC via Universal Licensing System and Coast Guard Vessel Documentation Center.

Last reported at 2016-Feb-12 21:33 UTC. Time now 2016-Feb-12 22:33 UTC.
Position N 37°49' W 122°19'.

Length 24 m; draft 4.9 m.

Type: Tug. MMSI: 367330510.

Date/timePositionNaut miles runAvg speedWind from/ knotsBaromVisibWave heightAir tempDewpointWater temp
2016-Feb-12 21:33N 37°49' W 122°19'8 7.8
2016-Feb-12 20:33N 37°55' W 122°25'1 1.3
2016-Feb-12 19:33N 37°54' W 122°25'7 6.9
2016-Feb-12 18:33N 37°49' W 122°31'2 2.1
2016-Feb-12 17:33N 37°49' W 122°28'6 6.5
2016-Feb-12 16:33N 37°54' W 122°23'0 0.0
2016-Feb-12 15:33N 37°54' W 122°23'0 0.0
2016-Feb-12 14:33N 37°54' W 122°23'0 0.0
2016-Feb-12 13:31N 37°54' W 122°23'0 0.0
2016-Feb-12 12:33N 37°54' W 122°23'0 0.0
2016-Feb-12 11:33N 37°54' W 122°23'0 0.0
2016-Feb-12 10:33N 37°54' W 122°23'0 0.0
2016-Feb-12 09:33N 37°54' W 122°23'1 1.2
2016-Feb-12 08:33N 37°55' W 122°22'0 0.0
2016-Feb-12 07:32N 37°55' W 122°22'0 0.0
2016-Feb-12 06:33N 37°55' W 122°22'0 0.0
2016-Feb-12 05:33N 37°55' W 122°22'0 0.3
2016-Feb-12 04:33N 37°55' W 122°22'0 0.4
2016-Feb-12 03:33N 37°55' W 122°22'3 2.9
2016-Feb-12 02:33N 37°55' W 122°25'2 1.5
2016-Feb-12 01:33N 37°54' W 122°25'10 7.6
2016-Feb-12 00:16N 38°03' W 122°20'9 0.5
2016-Feb-11 08:05N 38°02' W 122°09'4 6.8
2016-Feb-11 07:33N 38°03' W 122°13'2 2.0
2016-Feb-11 06:33N 38°04' W 122°16'11 7.8
2016-Feb-11 05:11N 37°57' W 122°26'6 9.9
2016-Feb-11 04:33N 37°51' W 122°23'4 3.7
2016-Feb-11 03:33N 37°49' W 122°19'3 3.4
2016-Feb-11 02:33N 37°49' W 122°23'4 3.5
2016-Feb-11 01:33N 37°49' W 122°19'0 0.2
2016-Feb-11 00:33N 37°49' W 122°19'0 0.0
2016-Feb-10 23:33N 37°49' W 122°19'0 0.0
2016-Feb-10 22:33N 37°49' W 122°19'2 1.7
2016-Feb-10 21:33N 37°48' W 122°19'1 0.9
2016-Feb-10 20:33N 37°48' W 122°20'2 1.6
2016-Feb-10 19:33N 37°49' W 122°19'0 0.0
2016-Feb-10 18:33N 37°49' W 122°19'0 0.0
2016-Feb-10 17:33N 37°49' W 122°19'0 0.0
2016-Feb-10 16:33N 37°49' W 122°19'0 0.0
2016-Feb-10 15:33N 37°49' W 122°19'0 0.5
2016-Feb-10 14:33N 37°49' W 122°19'0 0.3
2016-Feb-10 13:33N 37°49' W 122°19'0 0.2
2016-Feb-10 12:33N 37°49' W 122°19'1 0.7
2016-Feb-10 11:33N 37°49' W 122°19'0 0.0
2016-Feb-10 10:33N 37°49' W 122°19'0 0.0
2016-Feb-10 09:33N 37°49' W 122°19'0 0.0
2016-Feb-10 08:34N 37°49' W 122°19'0 0.0
2016-Feb-10 07:33N 37°49' W 122°19'0 0.0
2016-Feb-10 06:33N 37°49' W 122°19'0 0.0
2016-Feb-10 05:33N 37°49' W 122°19'0 0.0
2016-Feb-10 04:33N 37°49' W 122°19'1 1.1
2016-Feb-10 03:33N 37°49' W 122°20'1 0.7
2016-Feb-10 02:33N 37°48' W 122°21'2 1.5
2016-Feb-10 01:33N 37°49' W 122°19'0 0.2
2016-Feb-10 00:33N 37°49' W 122°19'1 1.3
2016-Feb-09 23:34N 37°49' W 122°20'1 0.8
2016-Feb-09 22:33N 37°48' W 122°20'1 0.7
2016-Feb-09 21:33N 37°48' W 122°21'0 0.0
2016-Feb-09 20:33N 37°48' W 122°21'2 2.1
2016-Feb-09 19:33N 37°48' W 122°18'0 0.3
2016-Feb-09 18:33N 37°48' W 122°18'1 1.4
2016-Feb-09 17:33N 37°49' W 122°19'0 0.2
2016-Feb-09 16:33N 37°49' W 122°19'0 0.3
2016-Feb-09 15:33N 37°49' W 122°19'0 0.3
2016-Feb-09 14:34N 37°49' W 122°19'0 0.0
2016-Feb-09 13:34N 37°49' W 122°19'0 0.3
2016-Feb-09 12:33N 37°49' W 122°19'0 0.3
2016-Feb-09 11:33N 37°49' W 122°19'0 0.0
2016-Feb-09 10:33N 37°49' W 122°19'0 0.0
2016-Feb-09 09:34N 37°49' W 122°19'0 0.0
2016-Feb-09 08:34N 37°49' W 122°19'0 0.0
2016-Feb-09 07:34N 37°49' W 122°19'0 0.0
2016-Feb-09 06:33N 37°49' W 122°19'0 0.0
2016-Feb-09 05:33N 37°49' W 122°19'0 0.0
2016-Feb-09 04:33N 37°49' W 122°19'0 0.0
2016-Feb-09 03:33N 37°49' W 122°19'0 0.0
2016-Feb-09 02:33N 37°49' W 122°19'0 0.0
2016-Feb-09 01:33N 37°49' W 122°19'1 0.6
2016-Feb-09 00:33N 37°49' W 122°19'1 1.5
2016-Feb-08 23:33N 37°48' W 122°21'2 2.0
2016-Feb-08 22:33N 37°49' W 122°19'0 0.0
2016-Feb-08 21:33N 37°49' W 122°19'0 0.0
2016-Feb-08 20:34N 37°49' W 122°19'0 0.0
2016-Feb-08 19:33N 37°49' W 122°19'0 0.0
2016-Feb-08 18:33N 37°49' W 122°19'0 0.0
2016-Feb-08 17:33N 37°49' W 122°19'0 0.0
2016-Feb-08 16:33N 37°49' W 122°19'1 0.8
2016-Feb-08 15:33N 37°49' W 122°19'2 2.1
2016-Feb-08 14:34N 37°48' W 122°22'3 2.8
2016-Feb-08 13:33N 37°49' W 122°19'0 0.0
2016-Feb-08 12:34N 37°49' W 122°19'0 0.0
2016-Feb-08 11:33N 37°49' W 122°19'0 0.0
2016-Feb-08 10:33N 37°49' W 122°19'0 0.0
2016-Feb-08 09:33N 37°49' W 122°19'0 0.0
2016-Feb-08 08:33N 37°49' W 122°19'0 0.0
2016-Feb-08 07:34N 37°49' W 122°19'0 0.0
2016-Feb-08 06:34N 37°49' W 122°19'0 0.0
2016-Feb-08 05:34N 37°49' W 122°19'2 2.4
2016-Feb-08 04:33N 37°50' W 122°22'5 4.8
2016-Feb-08 03:33N 37°54' W 122°22'2 1.8
2016-Feb-08 02:33N 37°55' W 122°24'3 2.6
2016-Feb-08 01:33N 37°52' W 122°24'5 4.9
2016-Feb-08 00:33N 37°49' W 122°19'0 0.0
2016-Feb-07 23:33N 37°49' W 122°19'0 0.0
2016-Feb-07 22:33N 37°49' W 122°19'0 0.0
2016-Feb-07 21:33N 37°49' W 122°19'0 0.0
2016-Feb-07 20:33N 37°49' W 122°19'5 4.9
2016-Feb-07 19:33N 37°46' W 122°23'0 0.3
2016-Feb-07 18:33N 37°46' W 122°23'4 4.3
2016-Feb-07 17:33N 37°49' W 122°19'0 0.3
2016-Feb-07 16:33N 37°49' W 122°19'0 0.0
2016-Feb-07 15:33N 37°49' W 122°19'0 0.0
2016-Feb-07 14:33N 37°49' W 122°19'2 1.6
2016-Feb-07 13:33N 37°48' W 122°20'0 0.1
2016-Feb-07 12:33N 37°48' W 122°21'0 0.0
2016-Feb-07 11:33N 37°48' W 122°21'0 0.0
2016-Feb-07 10:33N 37°48' W 122°21'8 8.4
2016-Feb-07 09:33N 37°56' W 122°26'9 9.0
2016-Feb-07 08:33N 38°03' W 122°19'2 2.3
2016-Feb-07 07:29N 38°03' W 122°16'5 4.7
2016-Feb-07 06:21N 38°02' W 122°22'810.3
2016-Feb-07 05:33N 37°55' W 122°27'7 7.3
2016-Feb-07 04:34N 37°48' W 122°30'5 4.7
2016-Feb-07 03:33N 37°49' W 122°24'5 4.5
2016-Feb-07 02:33N 37°49' W 122°19'1 1.0
2016-Feb-07 01:34N 37°49' W 122°20'1 1.3
2016-Feb-07 00:34N 37°48' W 122°19'0 0.3
2016-Feb-06 23:33N 37°48' W 122°19'0 0.0
2016-Feb-06 22:33N 37°48' W 122°19'1 1.0
2016-Feb-06 21:33N 37°49' W 122°19'1 0.6
2016-Feb-06 20:34N 37°49' W 122°19'0 0.0
2016-Feb-06 19:34N 37°49' W 122°19'0 0.0
2016-Feb-06 18:33N 37°49' W 122°19'0 0.0
2016-Feb-06 17:34N 37°49' W 122°19'0 0.0
2016-Feb-06 16:34N 37°49' W 122°19'1 1.2
2016-Feb-06 15:34N 37°49' W 122°20'1 1.1
2016-Feb-06 14:33N 37°48' W 122°21'2 1.7
2016-Feb-06 13:34N 37°49' W 122°19'1 0.6
2016-Feb-06 12:33N 37°49' W 122°19'0 0.0
2016-Feb-06 11:34N 37°49' W 122°19'0 0.0
2016-Feb-06 10:34N 37°49' W 122°19'0 0.0
2016-Feb-06 09:33N 37°49' W 122°19'0 0.0
2016-Feb-06 08:34N 37°49' W 122°19'0 0.0
2016-Feb-06 07:33N 37°49' W 122°19'0 0.0
2016-Feb-06 06:33N 37°49' W 122°19'0 0.0
2016-Feb-06 05:33N 37°49' W 122°19'0 0.0
2016-Feb-06 04:34N 37°49' W 122°19'0 0.0
2016-Feb-06 03:34N 37°49' W 122°19'0 0.0
2016-Feb-06 02:33N 37°49' W 122°19'0 0.0
2016-Feb-06 01:34N 37°49' W 122°19'6 6.4
2016-Feb-06 00:34N 37°43' W 122°20'1010.0
2016-Feb-05 23:33N 37°34' W 122°14'4 3.9
2016-Feb-05 22:33N 37°31' W 122°13'3 3.1
2016-Feb-05 21:34N 37°34' W 122°12'3 3.2
2016-Feb-05 20:33N 37°35' W 122°16'6 6.2
2016-Feb-05 19:33N 37°41' W 122°20'5 5.5
2016-Feb-05 18:33N 37°46' W 122°21'2 2.3
2016-Feb-05 17:33N 37°48' W 122°21'0 0.0
2016-Feb-05 16:33N 37°48' W 122°21'1 1.1
2016-Feb-05 15:33N 37°49' W 122°19'1 0.7
2016-Feb-05 14:33N 37°49' W 122°19'0 0.0
2016-Feb-05 13:33N 37°49' W 122°19'0 0.0
2016-Feb-05 12:34N 37°49' W 122°19'0 0.0
2016-Feb-05 11:34N 37°49' W 122°19'0 0.0
2016-Feb-05 10:33N 37°49' W 122°19'0 0.0
2016-Feb-05 09:34N 37°49' W 122°19'0 0.0
2016-Feb-05 08:34N 37°49' W 122°19'0 0.0
2016-Feb-05 07:33N 37°49' W 122°19'0 0.0
2016-Feb-05 06:33N 37°49' W 122°19'0 0.0
2016-Feb-05 05:33N 37°49' W 122°19'0 0.0
2016-Feb-05 04:33N 37°49' W 122°19'0 0.0
2016-Feb-05 03:34N 37°49' W 122°19'0 0.0
2016-Feb-05 02:34N 37°49' W 122°19'0 0.0
2016-Feb-05 01:34N 37°49' W 122°19'0 0.0
2016-Feb-05 00:33N 37°49' W 122°19'0 0.0
2016-Feb-04 23:33N 37°49' W 122°19'0 0.0
2016-Feb-04 22:33N 37°49' W 122°19'0 0.0
2016-Feb-04 21:34N 37°49' W 122°19'0 0.0
2016-Feb-04 20:34N 37°49' W 122°19'0 0.0
2016-Feb-04 19:33N 37°49' W 122°19'0 0.0
2016-Feb-04 18:33N 37°49' W 122°19'0 0.0
2016-Feb-04 17:34N 37°49' W 122°19'0 0.0
2016-Feb-04 16:33N 37°49' W 122°19'0 0.0
2016-Feb-04 15:33N 37°49' W 122°19'0 0.0
2016-Feb-04 14:33N 37°49' W 122°19'2 1.5
2016-Feb-04 13:34N 37°48' W 122°19'0 0.0
2016-Feb-04 12:33N 37°48' W 122°19'1 0.8
2016-Feb-04 11:33N 37°49' W 122°19'2 2.3
2016-Feb-04 10:34N 37°48' W 122°22'2 1.8
2016-Feb-04 09:34N 37°49' W 122°20'0 0.0
2016-Feb-04 08:33N 37°49' W 122°20'0 0.0
2016-Feb-04 07:34N 37°49' W 122°20'0 0.0
2016-Feb-04 06:34N 37°49' W 122°20'0 0.0
2016-Feb-04 05:34N 37°49' W 122°20'0 0.0
2016-Feb-04 04:34N 37°49' W 122°20'1 0.6
2016-Feb-04 03:33N 37°49' W 122°19'1 0.6
2016-Feb-04 02:34N 37°49' W 122°19'0 0.1
2016-Feb-04 01:33N 37°49' W 122°19'0 0.0
2016-Feb-04 00:34N 37°49' W 122°19'0 0.0
2016-Feb-03 23:33N 37°49' W 122°19'0 0.0
2016-Feb-03 22:33N 37°49' W 122°19'0 0.0
2016-Feb-03 21:33N 37°49' W 122°19'0 0.0
2016-Feb-03 20:34N 37°49' W 122°19'0 0.0
2016-Feb-03 19:34N 37°49' W 122°19'0 0.0
2016-Feb-03 18:33N 37°49' W 122°19'0 0.0
2016-Feb-03 17:33N 37°49' W 122°19'0 0.0
2016-Feb-03 16:34N 37°49' W 122°19'0 0.3
2016-Feb-03 15:33N 37°49' W 122°19'3 2.8
2016-Feb-03 14:33N 37°48' W 122°22'3 3.0
2016-Feb-03 13:34N 37°49' W 122°19'0 0.0
2016-Feb-03 12:34N 37°49' W 122°19'0 0.0
2016-Feb-03 11:33N 37°49' W 122°19'0 0.0
2016-Feb-03 10:34N 37°49' W 122°19'0 0.0
2016-Feb-03 09:33N 37°49' W 122°19'0 0.0
2016-Feb-03 08:34N 37°49' W 122°19'0 0.0
2016-Feb-03 07:33N 37°49' W 122°19'0 0.0
2016-Feb-03 06:34N 37°49' W 122°19'0 0.0
2016-Feb-03 05:33N 37°49' W 122°19'0 0.0
2016-Feb-03 04:33N 37°49' W 122°19'0 0.0
2016-Feb-03 03:34N 37°49' W 122°19'0 0.0
2016-Feb-03 02:33N 37°49' W 122°19'0 0.0
2016-Feb-03 01:34N 37°49' W 122°19'1 0.8
2016-Feb-03 00:34N 37°49' W 122°19'2 1.6
2016-Feb-02 23:33N 37°48' W 122°21'3 2.6
2016-Feb-02 22:33N 37°48' W 122°18'  

Dump ship's entire track history